createdAt,value
2022-09-12T00:01:13.791Z,100.00
2022-09-12T00:03:44.001Z,100.00
2022-09-12T00:06:20.420Z,100.00
2022-09-12T00:08:52.119Z,100.00
2022-09-12T00:11:21.729Z,100.00
2022-09-12T00:13:54.587Z,100.00
2022-09-12T00:16:26.557Z,100.00
2022-09-12T00:18:56.429Z,100.00
2022-09-12T00:21:26.403Z,100.00
2022-09-12T00:23:56.718Z,100.00
2022-09-12T00:26:26.341Z,100.00
2022-09-12T00:28:58.940Z,100.00
2022-09-12T00:31:30.183Z,100.00
2022-09-12T00:34:02.685Z,100.00
2022-09-12T00:36:33.360Z,100.00
2022-09-12T00:39:03.660Z,100.00
2022-09-12T00:41:35.920Z,100.00
2022-09-12T00:44:35.329Z,100.00
2022-09-12T00:47:13.462Z,100.00
2022-09-12T00:49:48.636Z,100.00
2022-09-12T00:52:21.813Z,100.00
2022-09-12T00:54:56.815Z,100.00
2022-09-12T00:57:32.386Z,100.00
2022-09-12T01:00:07.454Z,100.00
2022-09-12T01:02:39.800Z,100.00
2022-09-12T01:05:10.904Z,100.00
2022-09-12T01:07:41.251Z,100.00
2022-09-12T01:10:12.511Z,100.00
2022-09-12T01:12:45.045Z,100.00
2022-09-12T01:15:15.394Z,100.00
2022-09-12T01:17:57.622Z,100.00
2022-09-12T01:20:47.922Z,100.00
2022-09-12T01:23:47.626Z,100.00
2022-09-12T01:26:38.449Z,100.00
2022-09-12T01:29:25.401Z,100.00
2022-09-12T01:32:08.125Z,100.00
2022-09-12T01:34:47.531Z,100.00
2022-09-12T01:37:22.534Z,100.00
2022-09-12T01:40:01.473Z,100.00
2022-09-12T01:42:37.073Z,100.00
2022-09-12T01:45:14.882Z,100.00
2022-09-12T01:47:52.810Z,100.00
2022-09-12T01:50:25.744Z,100.00
2022-09-12T01:52:59.958Z,100.00
2022-09-12T01:55:34.142Z,100.00
2022-09-12T01:58:08.628Z,100.00
2022-09-12T02:00:45.358Z,100.00
2022-09-12T02:03:21.871Z,100.00
2022-09-12T02:05:57.587Z,100.00
2022-09-12T02:08:32.049Z,100.00
2022-09-12T02:11:07.386Z,100.00
2022-09-12T02:13:40.892Z,100.00
2022-09-12T02:16:13.451Z,100.00
2022-09-12T02:18:49.935Z,100.00
2022-09-12T02:21:22.280Z,100.00
2022-09-12T02:23:59.741Z,100.00
2022-09-12T02:26:34.096Z,100.00
2022-09-12T02:29:03.944Z,100.00
2022-09-12T02:31:39.640Z,100.00
2022-09-12T02:34:29.678Z,100.00
2022-09-12T02:37:08.606Z,100.00
2022-09-12T02:39:42.101Z,100.00
2022-09-12T02:42:14.842Z,100.00
2022-09-12T02:44:45.518Z,100.00
2022-09-12T02:47:21.990Z,100.00
2022-09-12T02:49:55.390Z,100.00
2022-09-12T02:52:25.481Z,100.00
2022-09-12T02:54:55.420Z,100.00
2022-09-12T02:57:25.238Z,100.00
2022-09-12T02:59:58.502Z,100.00
2022-09-12T03:02:34.767Z,100.00
2022-09-12T03:05:29.702Z,100.00
2022-09-12T03:08:37.350Z,100.00
2022-09-12T03:11:28.436Z,100.00
2022-09-12T03:14:09.383Z,100.00
2022-09-12T03:16:47.766Z,100.00
2022-09-12T03:19:25.571Z,100.00
2022-09-12T03:22:08.311Z,100.00
2022-09-12T03:24:41.422Z,100.00
2022-09-12T03:27:19.717Z,100.00
2022-09-12T03:29:51.510Z,100.00
2022-09-12T03:32:21.083Z,100.00
2022-09-12T03:34:50.694Z,100.00
2022-09-12T03:37:22.944Z,100.00
2022-09-12T03:39:52.496Z,100.00
2022-09-12T03:42:22.181Z,100.00
2022-09-12T03:44:51.812Z,100.00
2022-09-12T03:47:21.379Z,100.00
2022-09-12T03:49:52.575Z,100.00
2022-09-12T03:52:25.429Z,100.00
2022-09-12T03:54:55.777Z,100.00
2022-09-12T03:57:25.475Z,100.00
2022-09-12T03:59:55.253Z,100.00
2022-09-12T04:02:25.498Z,100.00
2022-09-12T04:04:55.374Z,100.00
2022-09-12T04:07:27.526Z,100.00
2022-09-12T04:09:57.097Z,100.00
2022-09-12T04:12:26.625Z,100.00
2022-09-12T04:14:56.728Z,100.00
2022-09-12T04:17:26.359Z,100.00
2022-09-12T04:19:56.659Z,100.00
2022-09-12T04:22:30.019Z,100.00
2022-09-12T04:25:00.284Z,100.00
2022-09-12T04:27:31.084Z,100.00
2022-09-12T04:30:02.275Z,100.00
2022-09-12T04:32:33.631Z,100.00
2022-09-12T04:35:03.290Z,100.00
2022-09-12T04:37:35.594Z,100.00
2022-09-12T04:40:06.102Z,100.00
2022-09-12T04:42:35.746Z,100.00
2022-09-12T04:45:06.389Z,100.00
2022-09-12T04:47:35.968Z,100.00
2022-09-12T04:50:05.802Z,100.00
2022-09-12T04:52:37.948Z,100.00
2022-09-12T04:55:08.694Z,100.00
2022-09-12T04:57:38.790Z,100.00
2022-09-12T05:00:13.763Z,100.00
2022-09-12T05:02:43.516Z,100.00
2022-09-12T05:05:13.689Z,100.00
2022-09-12T05:07:45.961Z,100.00
2022-09-12T05:10:15.833Z,100.00
2022-09-12T05:12:45.508Z,100.00
2022-09-12T05:15:15.194Z,100.00
2022-09-12T05:17:44.935Z,100.00
2022-09-12T05:20:15.386Z,100.00
2022-09-12T05:22:47.614Z,100.00
2022-09-12T05:25:17.345Z,100.00
2022-09-12T05:27:50.463Z,100.00
2022-09-12T05:30:20.587Z,100.00
2022-09-12T05:32:50.242Z,100.00
2022-09-12T05:35:20.147Z,100.00
2022-09-12T05:37:52.658Z,100.00
2022-09-12T05:40:22.414Z,100.00
2022-09-12T05:42:52.125Z,100.00
2022-09-12T05:45:21.758Z,100.00
2022-09-12T05:47:51.609Z,100.00
2022-09-12T05:50:21.383Z,100.00
2022-09-12T05:52:55.532Z,100.00
2022-09-12T05:55:26.853Z,100.00
2022-09-12T05:57:56.686Z,100.00
2022-09-12T06:00:29.302Z,100.00
2022-09-12T06:03:01.579Z,100.00
2022-09-12T06:05:33.277Z,100.00
2022-09-12T06:08:05.872Z,100.00
2022-09-12T06:10:35.440Z,100.00
2022-09-12T06:13:05.138Z,100.00
2022-09-12T06:15:35.625Z,100.00
2022-09-12T06:18:05.491Z,100.00
2022-09-12T06:20:35.758Z,100.00
2022-09-12T06:23:08.012Z,100.00
2022-09-12T06:25:37.542Z,100.00
2022-09-12T06:28:08.532Z,100.00
2022-09-12T06:30:38.149Z,100.00
2022-09-12T06:33:07.779Z,100.00
2022-09-12T06:35:39.208Z,100.00
2022-09-12T06:38:11.781Z,100.00
2022-09-12T06:40:45.208Z,100.00
2022-09-12T06:43:16.527Z,100.00
2022-09-12T06:45:52.329Z,100.00
2022-09-12T06:48:22.043Z,100.00
2022-09-12T06:51:00.270Z,100.00
2022-09-12T06:53:33.728Z,100.00
2022-09-12T06:56:05.107Z,100.00
2022-09-12T06:58:35.039Z,100.00
2022-09-12T07:01:06.064Z,100.00
2022-09-12T07:03:36.292Z,100.00
2022-09-12T07:06:07.311Z,100.00
2022-09-12T07:08:41.130Z,100.00
2022-09-12T07:11:15.725Z,100.00
2022-09-12T07:13:47.219Z,100.00
2022-09-12T07:16:19.964Z,100.00
2022-09-12T07:18:54.074Z,100.00
2022-09-12T07:21:24.207Z,100.00
2022-09-12T07:23:58.043Z,100.00
2022-09-12T07:26:29.918Z,100.00
2022-09-12T07:29:25.224Z,100.00
2022-09-12T07:31:51.307Z,100.00
2022-09-12T07:34:20.969Z,100.00
2022-09-12T07:36:50.476Z,100.00
2022-09-12T07:39:23.106Z,100.00
2022-09-12T07:41:52.653Z,100.00
2022-09-12T07:44:23.042Z,100.00
2022-09-12T07:46:53.274Z,100.00
2022-09-12T07:49:22.931Z,100.00
2022-09-12T07:51:53.292Z,100.00
2022-09-12T07:54:26.806Z,100.00
2022-09-12T07:56:56.931Z,100.00
2022-09-12T07:59:50.787Z,100.00
2022-09-12T08:02:17.774Z,100.00
2022-09-12T08:04:48.395Z,100.00
2022-09-12T08:07:19.279Z,100.00
2022-09-12T08:09:53.592Z,100.00
2022-09-12T08:12:23.186Z,100.00
2022-09-12T08:14:52.827Z,100.00
2022-09-12T08:17:22.562Z,100.00
2022-09-12T08:19:52.725Z,100.00
2022-09-12T08:22:23.033Z,100.00
2022-09-12T08:24:55.600Z,100.00
2022-09-12T08:27:25.474Z,100.00
2022-09-12T08:29:55.683Z,100.00
2022-09-12T08:32:25.649Z,100.00
2022-09-12T08:34:55.582Z,100.00
2022-09-12T08:37:25.789Z,100.00
2022-09-12T08:39:58.244Z,100.00
2022-09-12T08:42:49.378Z,100.00
2022-09-12T08:45:25.476Z,100.00
2022-09-12T08:47:55.919Z,100.00
2022-09-12T08:50:26.029Z,100.00
2022-09-12T08:52:59.799Z,100.00
2022-09-12T08:55:44.031Z,100.00
2022-09-12T08:58:17.457Z,100.00
2022-09-12T09:00:51.330Z,100.00
2022-09-12T09:03:51.106Z,100.00
2022-09-12T09:06:35.222Z,100.00
2022-09-12T09:09:13.015Z,100.00
2022-09-12T09:11:59.142Z,100.00
2022-09-12T09:14:53.569Z,100.00
2022-09-12T09:17:29.295Z,100.00
2022-09-12T09:20:06.098Z,100.00
2022-09-12T09:25:10.801Z,100.00
2022-09-12T09:27:48.739Z,100.00
2022-09-12T09:30:23.620Z,100.00
2022-09-12T09:32:55.700Z,100.00
2022-09-12T09:35:36.621Z,100.00
2022-09-12T09:38:20.345Z,100.00
2022-09-12T09:40:58.935Z,100.00
2022-09-12T09:43:31.398Z,100.00
2022-09-12T09:46:01.827Z,100.00
2022-09-12T09:48:34.564Z,100.00
2022-09-12T09:51:07.224Z,100.00
2022-09-12T09:53:41.549Z,100.00
2022-09-12T09:56:21.496Z,100.00
2022-09-12T09:58:55.673Z,100.00
2022-09-12T10:01:25.366Z,100.00
2022-09-12T10:03:56.568Z,100.00
2022-09-12T10:06:30.955Z,100.00
2022-09-12T10:09:25.649Z,100.00
2022-09-12T10:11:56.995Z,99.72
2022-09-12T10:14:44.102Z,100.00
2022-09-12T10:17:34.355Z,100.00
2022-09-12T10:20:20.555Z,100.00
2022-09-12T10:22:52.055Z,100.00
2022-09-12T10:25:23.097Z,100.00
2022-09-12T10:27:59.075Z,100.00
2022-09-12T10:30:31.655Z,100.00
2022-09-12T10:33:11.397Z,100.00
2022-09-12T10:35:51.352Z,100.00
2022-09-12T10:38:26.740Z,100.00
2022-09-12T10:41:04.337Z,100.00
2022-09-12T10:43:38.692Z,100.00
2022-09-12T10:46:34.637Z,100.00
2022-09-12T10:49:38.221Z,100.00
2022-09-12T10:52:23.917Z,100.00
2022-09-12T10:54:53.881Z,100.00
2022-09-12T10:57:53.451Z,100.00
2022-09-12T11:00:28.091Z,100.00
2022-09-12T11:03:13.466Z,100.00
2022-09-12T11:05:55.536Z,100.00
2022-09-12T11:08:53.518Z,99.33
2022-09-12T11:11:42.703Z,100.00
2022-09-12T11:14:42.685Z,98.28
2022-09-12T11:17:26.207Z,95.24
2022-09-12T11:20:06.219Z,96.55
2022-09-12T11:22:55.871Z,94.11
2022-09-12T11:25:34.717Z,95.38
2022-09-12T11:28:26.570Z,94.36
2022-09-12T11:31:14.417Z,96.78
2022-09-12T11:33:46.816Z,93.97
2022-09-12T11:36:32.693Z,93.17
2022-09-12T11:39:10.475Z,93.95
2022-09-12T11:41:44.180Z,91.68
2022-09-12T11:44:22.029Z,87.01
2022-09-12T11:46:52.431Z,87.70
2022-09-12T11:49:32.437Z,90.34
2022-09-12T11:52:17.294Z,90.81
2022-09-12T11:54:53.891Z,91.34
2022-09-12T11:57:32.018Z,89.92
2022-09-12T12:00:08.131Z,94.54
2022-09-12T12:02:45.471Z,90.61
2022-09-12T12:05:24.965Z,90.12
2022-09-12T12:07:59.279Z,91.14
2022-09-12T12:10:37.522Z,89.97
2022-09-12T12:13:14.096Z,91.21
2022-09-12T12:15:50.135Z,86.58
2022-09-12T12:18:23.168Z,83.79
2022-09-12T12:20:53.917Z,86.73
2022-09-12T12:23:34.934Z,84.65
2022-09-12T12:26:06.426Z,82.13
2022-09-12T12:29:03.021Z,86.53
2022-09-12T12:31:32.711Z,83.34
2022-09-12T12:34:28.820Z,84.99
2022-09-12T12:36:59.216Z,86.66
2022-09-12T12:40:05.902Z,85.47
2022-09-12T12:43:07.637Z,85.25
2022-09-12T12:46:14.579Z,81.05
2022-09-12T12:48:58.321Z,81.87
2022-09-12T12:51:51.400Z,82.81
2022-09-12T12:54:33.298Z,84.28
2022-09-12T12:57:09.303Z,80.55
2022-09-12T12:59:50.150Z,82.14
2022-09-12T13:02:25.385Z,82.05
2022-09-12T13:04:56.630Z,81.02
2022-09-12T13:07:32.854Z,84.34
2022-09-12T13:10:04.010Z,79.87
2022-09-12T13:12:36.841Z,80.35
2022-09-12T13:15:50.649Z,83.08
2022-09-12T13:18:26.322Z,87.14
2022-09-12T13:21:01.862Z,78.68
2022-09-12T13:23:35.358Z,80.36
2022-09-12T13:26:05.655Z,80.11
2022-09-12T13:28:38.098Z,74.84
2022-09-12T13:31:18.928Z,76.35
2022-09-12T13:33:51.407Z,79.80
2022-09-12T13:36:37.130Z,80.89
2022-09-12T13:39:17.758Z,76.44
2022-09-12T13:42:13.180Z,76.93
2022-09-12T13:44:47.525Z,80.10
2022-09-12T13:47:31.038Z,81.64
2022-09-12T13:50:01.534Z,81.54
2022-09-12T13:52:34.559Z,78.38
2022-09-12T13:55:09.092Z,81.32
2022-09-12T13:57:41.494Z,77.95
2022-09-12T14:00:20.115Z,81.55
2022-09-12T14:03:13.479Z,77.70
2022-09-12T14:05:44.719Z,77.80
2022-09-12T14:08:16.979Z,76.71
2022-09-12T14:10:50.554Z,78.88
2022-09-12T14:13:23.496Z,79.36
2022-09-12T14:15:55.312Z,75.74
2022-09-12T14:18:29.461Z,73.35
2022-09-12T14:21:01.389Z,72.71
2022-09-12T14:23:33.498Z,72.72
2022-09-12T14:26:08.373Z,72.64
2022-09-12T14:28:38.643Z,72.33
2022-09-12T14:31:10.627Z,72.00
2022-09-12T14:33:53.689Z,72.86
2022-09-12T14:36:27.403Z,74.68
2022-09-12T14:39:01.781Z,72.08
2022-09-12T14:41:34.167Z,73.04
2022-09-12T14:44:08.416Z,72.06
2022-09-12T14:46:39.789Z,74.73
2022-09-12T14:49:18.821Z,72.94
2022-09-12T14:51:57.578Z,68.47
2022-09-12T14:54:42.931Z,70.00
2022-09-12T14:57:35.251Z,71.92
2022-09-12T15:00:22.461Z,74.64
2022-09-12T15:02:52.807Z,73.69
2022-09-12T15:05:30.502Z,73.29
2022-09-12T15:08:02.351Z,73.95
2022-09-12T15:10:34.420Z,74.24
2022-09-12T15:13:20.113Z,76.03
2022-09-12T15:15:51.911Z,74.28
2022-09-12T15:18:22.655Z,73.54
2022-09-12T15:20:58.040Z,74.26
2022-09-12T15:23:35.877Z,73.65
2022-09-12T15:26:06.691Z,72.98
2022-09-12T15:28:36.915Z,74.62
2022-09-12T15:31:11.512Z,73.74
2022-09-12T15:33:41.137Z,73.59
2022-09-12T15:36:19.556Z,74.21
2022-09-12T15:38:50.917Z,75.21
2022-09-12T15:41:22.518Z,77.42
2022-09-12T15:43:52.793Z,78.60
2022-09-12T15:46:22.846Z,80.01
2022-09-12T15:48:52.916Z,80.19
2022-09-12T15:51:25.696Z,81.57
2022-09-12T15:53:55.503Z,81.63
2022-09-12T15:56:25.473Z,84.40
2022-09-12T15:58:59.608Z,85.33
2022-09-12T16:01:30.617Z,85.75
2022-09-12T16:04:00.805Z,85.19
2022-09-12T16:06:37.177Z,86.01
2022-09-12T16:09:07.672Z,87.58
2022-09-12T16:11:37.631Z,87.45
2022-09-12T16:14:08.244Z,89.75
2022-09-12T16:16:37.861Z,91.79
2022-09-12T16:19:07.702Z,91.40
2022-09-12T16:21:40.219Z,91.64
2022-09-12T16:24:10.290Z,92.91
2022-09-12T16:26:40.063Z,92.03
2022-09-12T16:29:10.383Z,94.86
2022-09-12T16:31:40.193Z,94.18
2022-09-12T16:34:12.679Z,95.26
2022-09-12T16:36:45.382Z,94.77
2022-09-12T16:39:15.124Z,96.17
2022-09-12T16:41:45.522Z,98.44
2022-09-12T16:44:15.369Z,98.16
2022-09-12T16:46:45.437Z,100.00
2022-09-12T16:49:15.665Z,100.00
2022-09-12T16:51:49.252Z,100.00
2022-09-12T16:54:20.034Z,100.00
2022-09-12T16:56:50.146Z,100.00
2022-09-12T16:59:19.815Z,100.00
2022-09-12T17:01:50.101Z,100.00
2022-09-12T17:04:23.477Z,100.00
2022-09-12T17:06:57.543Z,100.00
2022-09-12T17:09:28.322Z,100.00
2022-09-12T17:11:58.951Z,100.00
2022-09-12T17:14:28.496Z,100.00
2022-09-12T17:16:58.158Z,100.00
2022-09-12T17:19:32.888Z,100.00
2022-09-12T17:22:05.085Z,100.00
2022-09-12T17:24:34.721Z,100.00
2022-09-12T17:27:04.410Z,100.00
2022-09-12T17:29:35.141Z,100.00
2022-09-12T17:32:05.383Z,100.00
2022-09-12T17:34:35.023Z,100.00
2022-09-12T17:37:07.299Z,100.00
2022-09-12T17:39:36.911Z,100.00
2022-09-12T17:42:08.288Z,100.00
2022-09-12T17:44:38.819Z,100.00
2022-09-12T17:47:08.689Z,100.00
2022-09-12T17:49:39.473Z,100.00
2022-09-12T17:52:12.055Z,100.00
2022-09-12T17:54:41.776Z,100.00
2022-09-12T17:57:11.577Z,100.00
2022-09-12T17:59:41.330Z,100.00
2022-09-12T18:02:16.621Z,100.00
2022-09-12T18:04:48.922Z,100.00
2022-09-12T18:07:22.494Z,100.00
2022-09-12T18:09:55.363Z,100.00
2022-09-12T18:12:27.142Z,100.00
2022-09-12T18:14:56.751Z,100.00
2022-09-12T18:17:27.509Z,100.00
2022-09-12T18:19:57.126Z,100.00
2022-09-12T18:22:29.398Z,100.00
2022-09-12T18:24:59.076Z,100.00
2022-09-12T18:27:28.720Z,100.00
2022-09-12T18:30:19.697Z,100.00
2022-09-12T18:32:48.182Z,100.00
2022-09-12T18:35:18.211Z,100.00
2022-09-12T18:37:50.595Z,100.00
2022-09-12T18:40:20.381Z,100.00
2022-09-12T18:42:50.103Z,100.00
2022-09-12T18:45:20.126Z,100.00
2022-09-12T18:47:49.836Z,100.00
2022-09-12T18:50:20.018Z,100.00
2022-09-12T18:52:57.868Z,100.00
2022-09-12T18:55:29.619Z,100.00
2022-09-12T18:57:59.390Z,100.00
2022-09-12T19:00:29.084Z,100.00
2022-09-12T19:02:58.759Z,100.00
2022-09-12T19:05:28.471Z,100.00
2022-09-12T19:08:01.902Z,100.00
2022-09-12T19:10:31.570Z,100.00
2022-09-12T19:13:01.504Z,100.00
2022-09-12T19:15:33.364Z,100.00
2022-09-12T19:18:03.073Z,100.00
2022-09-12T19:20:35.335Z,100.00
2022-09-12T19:23:07.710Z,100.00
2022-09-12T19:25:37.608Z,100.00
2022-09-12T19:28:08.099Z,100.00
2022-09-12T19:30:41.765Z,100.00
2022-09-12T19:33:14.337Z,100.00
2022-09-12T19:35:44.100Z,100.00
2022-09-12T19:38:16.944Z,100.00
2022-09-12T19:40:47.098Z,100.00
2022-09-12T19:43:24.543Z,100.00
2022-09-12T19:45:54.896Z,100.00
2022-09-12T19:48:24.889Z,100.00
2022-09-12T19:50:55.015Z,100.00
2022-09-12T19:53:27.380Z,100.00
2022-09-12T19:56:02.311Z,100.00
2022-09-12T19:58:32.767Z,100.00
2022-09-12T20:01:12.034Z,100.00
2022-09-12T20:03:42.278Z,100.00
2022-09-12T20:06:13.745Z,100.00
2022-09-12T20:08:47.268Z,100.00
2022-09-12T20:11:19.631Z,100.00
2022-09-12T20:13:50.574Z,100.00
2022-09-12T20:16:23.381Z,100.00
2022-09-12T20:18:56.761Z,100.00
2022-09-12T20:21:31.775Z,100.00
2022-09-12T20:24:09.331Z,100.00
2022-09-12T20:26:39.781Z,100.00
2022-09-12T20:29:09.731Z,100.00
2022-09-12T20:31:41.232Z,100.00
2022-09-12T20:34:16.545Z,100.00
2022-09-12T20:36:47.173Z,100.00
2022-09-12T20:39:21.821Z,100.00
2022-09-12T20:41:51.909Z,100.00
2022-09-12T20:44:21.812Z,100.00
2022-09-12T20:46:51.588Z,100.00
2022-09-12T20:49:21.539Z,100.00
2022-09-12T20:51:51.424Z,100.00
2022-09-12T20:54:23.590Z,100.00
2022-09-12T20:56:53.303Z,100.00
2022-09-12T20:59:23.089Z,100.00
2022-09-12T21:01:52.769Z,100.00
2022-09-12T21:04:23.849Z,100.00
2022-09-12T21:06:53.605Z,100.00
2022-09-12T21:09:25.775Z,100.00
2022-09-12T21:11:55.606Z,100.00
2022-09-12T21:14:25.266Z,100.00
2022-09-12T21:16:54.788Z,100.00
2022-09-12T21:19:24.518Z,100.00
2022-09-12T21:21:54.260Z,100.00
2022-09-12T21:24:26.422Z,100.00
2022-09-12T21:26:57.420Z,100.00
2022-09-12T21:29:28.918Z,100.00
2022-09-12T21:31:58.553Z,100.00
2022-09-12T21:34:28.319Z,100.00
2022-09-12T21:36:57.928Z,100.00
2022-09-12T21:39:30.330Z,100.00
2022-09-12T21:42:00.144Z,100.00
2022-09-12T21:44:29.760Z,100.00
2022-09-12T21:46:59.498Z,100.00
2022-09-12T21:49:29.253Z,100.00
2022-09-12T21:51:58.829Z,100.00
2022-09-12T21:54:31.048Z,100.00
2022-09-12T21:57:00.649Z,100.00
2022-09-12T21:59:30.438Z,100.00
2022-09-12T22:02:00.499Z,100.00
2022-09-12T22:04:33.012Z,100.00
2022-09-12T22:07:02.634Z,100.00
2022-09-12T22:09:35.159Z,100.00
2022-09-12T22:12:05.375Z,100.00
2022-09-12T22:14:35.012Z,100.00
2022-09-12T22:17:05.407Z,100.00
2022-09-12T22:19:35.223Z,100.00
2022-09-12T22:22:17.409Z,100.00
2022-09-12T22:24:50.614Z,100.00
2022-09-12T22:27:20.221Z,100.00
2022-09-12T22:29:52.496Z,100.00
2022-09-12T22:32:25.254Z,100.00
2022-09-12T22:34:54.873Z,100.00
2022-09-12T22:37:24.545Z,100.00
2022-09-12T22:39:56.969Z,100.00
2022-09-12T22:42:26.768Z,100.00
2022-09-12T22:44:56.490Z,100.00
2022-09-12T22:47:27.121Z,100.00
2022-09-12T22:49:59.136Z,100.00
2022-09-12T22:52:28.808Z,100.00
2022-09-12T22:55:01.084Z,100.00
2022-09-12T22:57:30.791Z,100.00
2022-09-12T23:00:00.447Z,100.00
2022-09-12T23:02:30.043Z,100.00
2022-09-12T23:04:59.553Z,100.00
2022-09-12T23:07:29.239Z,100.00
2022-09-12T23:10:01.442Z,100.00
2022-09-12T23:12:31.984Z,100.00
2022-09-12T23:15:01.532Z,100.00
2022-09-12T23:17:31.337Z,100.00
2022-09-12T23:20:00.969Z,100.00
2022-09-12T23:22:30.606Z,100.00
2022-09-12T23:25:03.410Z,100.00
2022-09-12T23:27:32.985Z,100.00
2022-09-12T23:30:02.778Z,100.00
2022-09-12T23:32:32.429Z,100.00
2022-09-12T23:35:03.147Z,100.00
2022-09-12T23:37:32.787Z,100.00
2022-09-12T23:40:05.705Z,100.00
2022-09-12T23:42:35.309Z,100.00
2022-09-12T23:45:04.967Z,100.00
2022-09-12T23:47:34.581Z,100.00
2022-09-12T23:50:04.249Z,100.00
2022-09-12T23:52:34.190Z,100.00
2022-09-12T23:55:07.386Z,100.00
2022-09-12T23:57:36.922Z,100.00
